createdAt,value
2022-12-29T00:00:29.935Z,95148.94
2022-12-29T00:04:15.185Z,95145.63
2022-12-29T00:07:58.410Z,95131.03
2022-12-29T00:11:41.414Z,95127.34
2022-12-29T00:15:38.145Z,95127.34
2022-12-29T00:19:40.264Z,95120.50
2022-12-29T00:23:40.643Z,95118.88
2022-12-29T00:27:40.989Z,95106.84
2022-12-29T00:31:41.352Z,95117.25
2022-12-29T00:35:29.026Z,95121.78
2022-12-29T00:39:30.903Z,95116.91
2022-12-29T00:43:45.492Z,95114.94
2022-12-29T00:47:28.214Z,95116.91
2022-12-29T00:51:12.269Z,95112.41
2022-12-29T00:54:55.204Z,95118.88
2022-12-29T00:58:37.890Z,95115.00
2022-12-29T01:02:20.662Z,95123.63
2022-12-29T01:06:03.720Z,95124.44
2022-12-29T01:10:05.432Z,95123.16
2022-12-29T01:13:48.135Z,95118.13
2022-12-29T01:17:30.787Z,95128.03
2022-12-29T01:21:14.047Z,95121.47
2022-12-29T01:24:58.179Z,95115.50
2022-12-29T01:28:42.410Z,95120.44
2022-12-29T01:32:25.351Z,95133.47
2022-12-29T01:36:09.914Z,95129.59
2022-12-29T01:39:52.574Z,95127.69
2022-12-29T01:43:43.389Z,95126.06
2022-12-29T01:47:33.250Z,95126.34
2022-12-29T01:51:16.613Z,95120.25
2022-12-29T01:55:01.966Z,95125.00
2022-12-29T01:58:48.360Z,95130.50
2022-12-29T02:02:33.451Z,95119.22
2022-12-29T02:06:20.473Z,95117.38
2022-12-29T02:10:04.330Z,95107.78
2022-12-29T02:13:48.358Z,95104.59
2022-12-29T02:17:41.856Z,95107.41
2022-12-29T02:21:49.889Z,95105.31
2022-12-29T02:26:07.205Z,95113.41
2022-12-29T02:30:07.071Z,95105.53
2022-12-29T02:33:56.951Z,95110.72
2022-12-29T02:37:44.247Z,95107.22
2022-12-29T02:41:33.420Z,95104.63
2022-12-29T02:45:21.839Z,95088.63
2022-12-29T02:49:12.390Z,95085.38
2022-12-29T02:52:58.856Z,95099.28
2022-12-29T02:56:41.609Z,95084.34
2022-12-29T03:00:24.323Z,95084.56
2022-12-29T03:04:22.018Z,95076.94
2022-12-29T03:08:09.063Z,95063.16
2022-12-29T03:12:11.853Z,95068.13
2022-12-29T03:16:01.171Z,95052.38
2022-12-29T03:19:49.430Z,95063.25
2022-12-29T03:23:32.269Z,95063.97
2022-12-29T03:27:23.356Z,95057.88
2022-12-29T03:31:06.909Z,95059.75
2022-12-29T03:34:52.149Z,95064.84
2022-12-29T03:38:37.886Z,95067.25
2022-12-29T03:42:24.808Z,95059.63
2022-12-29T03:46:07.669Z,95057.88
2022-12-29T03:49:52.111Z,95056.53
2022-12-29T03:53:34.869Z,95062.38
2022-12-29T03:57:17.520Z,95054.28
2022-12-29T04:01:00.271Z,95049.69
2022-12-29T04:04:43.014Z,95056.09
2022-12-29T04:08:27.471Z,95051.69
2022-12-29T04:12:10.124Z,95048.16
2022-12-29T04:15:52.959Z,95051.50
2022-12-29T04:19:35.685Z,95041.25
2022-12-29T04:23:18.481Z,95057.34
2022-12-29T04:27:02.662Z,95049.41
2022-12-29T04:30:45.566Z,95052.56
2022-12-29T04:34:28.330Z,95040.34
2022-12-29T04:38:11.169Z,95045.75
2022-12-29T04:41:53.877Z,95049.78
2022-12-29T04:45:38.395Z,95033.75
2022-12-29T04:49:21.045Z,95043.81
2022-12-29T04:53:03.743Z,95037.25
2022-12-29T04:56:46.420Z,95035.00
2022-12-29T05:00:29.202Z,95041.84
2022-12-29T05:04:13.327Z,95047.44
2022-12-29T05:07:56.940Z,95046.19
2022-12-29T05:11:39.656Z,95047.44
2022-12-29T05:15:22.935Z,95047.06
2022-12-29T05:19:05.684Z,95056.03
2022-12-29T05:22:49.757Z,95045.59
2022-12-29T05:26:32.487Z,95047.22
2022-12-29T05:30:15.184Z,95056.03
2022-12-29T05:33:57.891Z,95051.63
2022-12-29T05:37:40.582Z,95046.84
2022-12-29T05:41:24.553Z,95041.19
2022-12-29T05:45:09.095Z,95046.66
2022-12-29T05:48:51.753Z,95045.34
2022-12-29T05:52:34.532Z,95046.84
2022-12-29T05:56:17.341Z,95038.38
2022-12-29T06:00:01.651Z,95042.06
2022-12-29T06:03:48.089Z,95049.91
2022-12-29T06:07:33.278Z,95039.06
2022-12-29T06:11:16.008Z,95040.44
2022-12-29T06:14:58.679Z,95046.28
2022-12-29T06:18:43.191Z,95043.41
2022-12-29T06:22:25.991Z,95049.16
2022-12-29T06:26:08.703Z,95053.13
2022-12-29T06:29:51.340Z,95064.19
2022-12-29T06:33:34.019Z,95050.31
2022-12-29T06:37:18.047Z,95051.88
2022-12-29T06:41:00.711Z,95058.28
2022-12-29T06:44:43.811Z,95055.28
2022-12-29T06:48:26.588Z,95057.47
2022-12-29T06:52:12.926Z,95060.81
2022-12-29T06:55:58.020Z,95045.66
2022-12-29T06:59:40.711Z,95064.25
2022-12-29T07:03:23.503Z,95061.06
2022-12-29T07:07:06.227Z,95060.81
2022-12-29T07:10:49.075Z,95061.16
2022-12-29T07:14:37.419Z,95079.34
2022-12-29T07:18:25.171Z,95097.66
2022-12-29T07:22:07.899Z,95088.06
2022-12-29T07:25:50.674Z,95088.00
2022-12-29T07:29:34.860Z,95094.03
2022-12-29T07:33:18.657Z,95099.78
2022-12-29T07:37:01.331Z,95102.56
2022-12-29T07:40:44.044Z,95104.38
2022-12-29T07:44:26.701Z,95106.25
2022-12-29T07:48:10.863Z,95090.72
2022-12-29T07:51:53.650Z,95093.94
2022-12-29T07:55:36.426Z,95101.28
2022-12-29T07:59:19.636Z,95101.81
2022-12-29T08:03:02.344Z,95104.44
2022-12-29T08:06:47.377Z,95100.66
2022-12-29T08:10:30.057Z,95101.06
2022-12-29T08:14:12.932Z,95110.47
2022-12-29T08:17:55.575Z,95100.28
2022-12-29T08:21:38.291Z,95097.03
2022-12-29T08:25:25.408Z,95096.78
2022-12-29T08:29:08.109Z,95102.31
2022-12-29T08:32:50.765Z,95096.44
2022-12-29T08:36:33.572Z,95097.38
2022-12-29T08:40:19.103Z,95103.78
2022-12-29T08:44:03.158Z,95100.44
2022-12-29T08:47:45.843Z,95100.88
2022-12-29T08:51:29.118Z,95103.72
2022-12-29T08:55:11.783Z,95103.75
2022-12-29T08:58:54.791Z,95107.44
2022-12-29T09:02:38.967Z,95113.53
2022-12-29T09:06:21.806Z,95119.88
2022-12-29T09:10:05.426Z,95117.31
2022-12-29T09:13:48.491Z,95128.31
2022-12-29T09:17:43.297Z,95121.88
2022-12-29T09:21:27.326Z,95141.31
2022-12-29T09:25:11.126Z,95134.72
2022-12-29T09:28:53.862Z,95129.28
2022-12-29T09:32:43.593Z,95138.59
2022-12-29T09:36:29.033Z,95134.16
2022-12-29T09:40:23.181Z,95126.31
2022-12-29T09:44:11.105Z,95113.19
2022-12-29T09:47:54.046Z,95114.59
2022-12-29T09:51:39.989Z,95117.25
2022-12-29T09:55:24.785Z,95103.13
2022-12-29T09:59:14.244Z,95104.31
2022-12-29T10:02:58.701Z,95108.56
2022-12-29T10:07:19.323Z,95102.31
2022-12-29T10:10:55.512Z,95094.03
2022-12-29T10:14:49.748Z,95076.47
2022-12-29T10:19:10.061Z,95079.31
2022-12-29T10:23:07.222Z,95088.19
2022-12-29T10:26:53.426Z,95076.47
2022-12-29T10:30:36.469Z,95079.50
2022-12-29T10:34:23.307Z,95074.66
2022-12-29T10:38:14.352Z,95086.56
2022-12-29T10:42:03.563Z,95073.22
2022-12-29T10:45:46.601Z,95078.06
2022-12-29T10:49:30.584Z,95063.53
2022-12-29T10:53:19.731Z,95063.31
2022-12-29T10:57:04.605Z,95058.06
2022-12-29T11:00:52.948Z,95053.81
2022-12-29T11:04:45.896Z,95062.50
2022-12-29T11:08:33.154Z,95048.56
2022-12-29T11:12:24.454Z,95045.31
2022-12-29T11:16:07.854Z,95036.34
2022-12-29T11:19:50.595Z,95037.72
2022-12-29T11:23:36.525Z,95036.94
2022-12-29T11:27:21.640Z,95029.22
2022-12-29T11:31:06.291Z,95023.00
2022-12-29T11:34:49.560Z,95006.25
2022-12-29T11:38:37.786Z,95008.09
2022-12-29T11:42:22.652Z,95015.84
2022-12-29T11:46:06.259Z,95016.31
2022-12-29T11:49:52.796Z,95011.16
2022-12-29T11:53:41.010Z,95012.97
2022-12-29T11:57:24.368Z,95015.81
2022-12-29T12:01:09.804Z,95020.28
2022-12-29T12:04:58.231Z,95005.81
2022-12-29T12:08:47.489Z,95008.75
2022-12-29T12:12:33.373Z,95017.16
2022-12-29T12:16:19.432Z,95024.28
2022-12-29T12:20:05.958Z,95007.63
2022-12-29T12:24:02.814Z,95002.50
2022-12-29T12:27:49.008Z,94984.66
2022-12-29T12:31:43.659Z,94967.00
2022-12-29T12:35:36.762Z,94976.19
2022-12-29T12:39:28.206Z,94981.22
2022-12-29T12:43:23.757Z,94989.03
2022-12-29T12:47:25.903Z,94972.75
2022-12-29T12:51:16.762Z,94964.91
2022-12-29T12:55:13.163Z,94980.41
2022-12-29T12:59:02.957Z,94970.44
2022-12-29T13:03:02.049Z,94968.97
2022-12-29T13:06:51.334Z,94978.25
2022-12-29T13:10:48.309Z,94960.44
2022-12-29T13:14:43.513Z,94958.34
2022-12-29T13:18:31.410Z,94958.31
2022-12-29T13:22:18.775Z,94958.66
2022-12-29T13:26:15.646Z,94957.50
2022-12-29T13:30:02.986Z,94954.06
2022-12-29T13:33:51.358Z,94951.66
2022-12-29T13:37:36.261Z,94957.47
2022-12-29T13:41:23.199Z,94960.34
2022-12-29T13:45:08.528Z,94962.25
2022-12-29T13:48:54.174Z,94982.06
2022-12-29T13:52:39.031Z,94975.19
2022-12-29T13:56:27.995Z,94982.97
2022-12-29T14:00:15.719Z,94986.38
2022-12-29T14:03:59.482Z,94976.72
2022-12-29T14:07:42.464Z,94968.22
2022-12-29T14:11:32.536Z,94970.53
2022-12-29T14:15:25.350Z,94976.44
2022-12-29T14:19:16.711Z,94964.81
2022-12-29T14:23:01.470Z,94981.00
2022-12-29T14:26:45.499Z,94974.53
2022-12-29T14:30:49.904Z,94979.06
2022-12-29T14:34:41.127Z,94983.97
2022-12-29T14:38:31.437Z,94982.88
2022-12-29T14:42:18.515Z,94981.91
2022-12-29T14:46:03.194Z,94978.44
2022-12-29T14:49:46.732Z,94980.97
2022-12-29T14:53:53.563Z,94978.25
2022-12-29T14:57:40.758Z,94980.94
2022-12-29T15:01:31.257Z,94989.75
2022-12-29T15:05:27.454Z,94993.47
2022-12-29T15:09:18.546Z,94996.81
2022-12-29T15:13:06.168Z,94996.03
2022-12-29T15:16:49.021Z,94999.72
2022-12-29T15:20:34.172Z,94996.50
2022-12-29T15:24:17.103Z,94998.97
2022-12-29T15:28:05.141Z,95006.72
2022-12-29T15:31:49.203Z,95001.31
2022-12-29T15:35:35.350Z,95003.56
2022-12-29T15:39:21.582Z,94993.06
2022-12-29T15:43:15.054Z,95001.56
2022-12-29T15:46:57.935Z,94999.97
2022-12-29T15:50:44.023Z,95007.63
2022-12-29T15:54:28.744Z,95006.84
2022-12-29T15:58:23.647Z,95001.59
2022-12-29T16:02:12.607Z,95002.22
2022-12-29T16:05:57.638Z,95004.69
2022-12-29T16:09:44.521Z,95001.25
2022-12-29T16:13:34.214Z,95005.91
2022-12-29T16:17:22.778Z,95002.50
2022-12-29T16:21:06.881Z,95001.47
2022-12-29T16:24:49.574Z,95005.72
2022-12-29T16:28:38.190Z,95009.72
2022-12-29T16:32:27.284Z,95014.19
2022-12-29T16:36:28.902Z,95023.91
2022-12-29T16:40:32.411Z,95025.94
2022-12-29T16:44:18.405Z,95011.81
2022-12-29T16:48:17.610Z,95026.75
2022-12-29T16:52:00.876Z,95020.09
2022-12-29T16:55:48.412Z,95028.34
2022-12-29T16:59:35.687Z,95038.47
2022-12-29T17:03:18.465Z,95041.69
2022-12-29T17:07:01.187Z,95046.13
2022-12-29T17:11:01.389Z,95042.91
2022-12-29T17:14:46.711Z,95045.31
2022-12-29T17:18:29.520Z,95038.25
2022-12-29T17:22:14.255Z,95033.41
2022-12-29T17:25:57.033Z,95026.75
2022-12-29T17:29:42.414Z,95038.84
2022-12-29T17:33:26.427Z,95038.47
2022-12-29T17:37:32.878Z,95036.88
2022-12-29T17:41:16.562Z,95029.16
2022-12-29T17:44:59.714Z,95027.97
2022-12-29T17:48:48.060Z,95040.47
2022-12-29T17:52:34.307Z,95038.25
2022-12-29T17:56:16.984Z,95032.81
2022-12-29T18:00:02.429Z,95036.47
2022-12-29T18:03:46.574Z,95023.94
2022-12-29T18:07:35.693Z,95029.22
2022-12-29T18:11:24.680Z,95054.25
2022-12-29T18:15:11.669Z,95049.41
2022-12-29T18:18:55.764Z,95044.97
2022-12-29T18:22:38.983Z,95050.63
2022-12-29T18:26:27.696Z,95052.66
2022-12-29T18:30:14.992Z,95054.28
2022-12-29T18:34:00.827Z,95047.00
2022-12-29T18:37:43.499Z,95050.63
2022-12-29T18:41:29.450Z,95042.97
2022-12-29T18:45:18.451Z,95049.22
2022-12-29T18:49:02.551Z,95042.97
2022-12-29T18:52:45.756Z,95039.94
2022-12-29T18:56:28.487Z,95043.34
2022-12-29T19:00:12.735Z,95037.50
2022-12-29T19:03:55.686Z,95049.81
2022-12-29T19:07:39.716Z,95058.72
2022-12-29T19:11:24.184Z,95053.88
2022-12-29T19:15:07.815Z,95042.56
2022-12-29T19:19:07.722Z,95049.22
2022-12-29T19:22:52.802Z,95042.78
2022-12-29T19:26:37.320Z,95036.38
2022-12-29T19:30:21.084Z,95045.06
2022-12-29T19:34:04.212Z,95041.44
2022-12-29T19:37:47.179Z,95047.03
2022-12-29T19:41:33.245Z,95055.00
2022-12-29T19:45:16.275Z,95038.25
2022-12-29T19:48:59.453Z,95054.22
2022-12-29T19:52:43.710Z,95057.03
2022-12-29T19:56:26.542Z,95059.06
2022-12-29T20:00:13.445Z,95060.91
2022-12-29T20:03:56.164Z,95071.41
2022-12-29T20:07:39.705Z,95069.59
2022-12-29T20:11:22.642Z,95073.44
2022-12-29T20:15:07.151Z,95054.06
2022-12-29T20:18:51.394Z,95058.50
2022-12-29T20:22:34.169Z,95064.97
2022-12-29T20:26:18.887Z,95052.06
2022-12-29T20:30:02.007Z,95054.28
2022-12-29T20:33:44.882Z,95048.19
2022-12-29T20:37:29.256Z,95055.25
2022-12-29T20:41:12.176Z,95061.16
2022-12-29T20:44:54.927Z,95067.16
2022-12-29T20:48:37.710Z,95057.88
2022-12-29T20:52:20.407Z,95051.81
2022-12-29T20:56:07.050Z,95049.00
2022-12-29T20:59:50.072Z,95032.84
2022-12-29T21:03:33.043Z,95030.84
2022-12-29T21:07:19.890Z,95021.56
2022-12-29T21:11:05.193Z,95019.94
2022-12-29T21:14:50.508Z,95027.81
2022-12-29T21:18:33.321Z,95027.41
2022-12-29T21:22:16.106Z,95026.41
2022-12-29T21:26:00.286Z,95017.53
2022-12-29T21:29:44.325Z,95033.66
2022-12-29T21:33:26.988Z,95036.09
2022-12-29T21:37:09.698Z,95029.63
2022-12-29T21:40:52.390Z,95032.47
2022-12-29T21:44:52.789Z,95032.47
2022-12-29T21:48:36.935Z,95025.78
2022-12-29T21:52:19.623Z,95028.81
2022-12-29T21:56:02.306Z,95052.00
2022-12-29T22:00:02.624Z,95054.63
2022-12-29T22:04:04.397Z,95065.13
2022-12-29T22:08:04.524Z,95071.34
2022-12-29T22:12:04.917Z,95063.03
2022-12-29T22:15:47.894Z,95063.03
2022-12-29T22:19:32.035Z,95058.56
2022-12-29T22:23:15.104Z,95060.16
2022-12-29T22:26:57.873Z,95068.63
2022-12-29T22:30:40.595Z,95071.88
2022-12-29T22:34:23.304Z,95074.13
2022-12-29T22:38:07.408Z,95084.41
2022-12-29T22:41:50.057Z,95088.44
2022-12-29T22:45:32.680Z,95102.75
2022-12-29T22:49:15.666Z,95107.38
2022-12-29T22:53:00.206Z,95097.47
2022-12-29T22:56:44.416Z,95105.53
2022-12-29T23:00:27.240Z,95111.41
2022-12-29T23:04:55.592Z,95112.81
2022-12-29T23:08:12.785Z,95124.69
2022-12-29T23:11:56.923Z,95127.72
2022-12-29T23:15:40.013Z,95134.38
2022-12-29T23:19:23.017Z,95147.25
2022-12-29T23:23:05.749Z,95146.03
2022-12-29T23:26:48.592Z,95142.84
2022-12-29T23:30:32.833Z,95149.72
2022-12-29T23:34:16.545Z,95149.72
2022-12-29T23:37:59.358Z,95152.41
2022-12-29T23:41:42.162Z,95149.72
2022-12-29T23:45:24.897Z,95138.44
2022-12-29T23:49:11.149Z,95148.53
2022-12-29T23:52:53.827Z,95162.66
2022-12-29T23:56:36.450Z,95164.28
